sensor_id;sensor_type;location;lat;lon;timestamp;P1;durP1;ratioP1;P2;durP2;ratioP2
23578;SDS011;11967;50.852;4.400;2024-02-23T00:00:34;6.15;;;1.38;;
23578;SDS011;11967;50.852;4.400;2024-02-23T00:03:00;6.43;;;1.70;;
23578;SDS011;11967;50.852;4.400;2024-02-23T00:05:25;8.55;;;1.50;;
23578;SDS011;11967;50.852;4.400;2024-02-23T00:07:52;9.13;;;1.48;;
23578;SDS011;11967;50.852;4.400;2024-02-23T00:10:18;5.85;;;1.40;;
23578;SDS011;11967;50.852;4.400;2024-02-23T00:12:43;6.13;;;1.45;;
23578;SDS011;11967;50.852;4.400;2024-02-23T00:15:10;8.57;;;1.20;;
23578;SDS011;11967;50.852;4.400;2024-02-23T00:17:38;5.18;;;1.40;;
23578;SDS011;11967;50.852;4.400;2024-02-23T00:20:05;7.40;;;1.40;;
23578;SDS011;11967;50.852;4.400;2024-02-23T00:22:34;6.13;;;1.10;;
23578;SDS011;11967;50.852;4.400;2024-02-23T00:25:00;5.50;;;1.50;;
23578;SDS011;11967;50.852;4.400;2024-02-23T00:27:25;4.03;;;1.10;;
23578;SDS011;11967;50.852;4.400;2024-02-23T00:29:51;3.38;;;1.00;;
23578;SDS011;11967;50.852;4.400;2024-02-23T00:32:17;7.30;;;0.90;;
23578;SDS011;11967;50.852;4.400;2024-02-23T00:34:42;3.83;;;1.10;;
23578;SDS011;11967;50.852;4.400;2024-02-23T00:37:08;4.85;;;1.33;;
23578;SDS011;11967;50.852;4.400;2024-02-23T00:39:34;6.65;;;1.27;;
23578;SDS011;11967;50.852;4.400;2024-02-23T00:41:59;5.22;;;1.02;;
23578;SDS011;11967;50.852;4.400;2024-02-23T00:44:25;5.60;;;1.23;;
23578;SDS011;11967;50.852;4.400;2024-02-23T00:46:51;3.55;;;1.20;;
23578;SDS011;11967;50.852;4.400;2024-02-23T00:49:19;7.82;;;1.10;;
23578;SDS011;11967;50.852;4.400;2024-02-23T00:51:44;2.97;;;0.90;;
23578;SDS011;11967;50.852;4.400;2024-02-23T00:54:10;5.78;;;1.00;;
23578;SDS011;11967;50.852;4.400;2024-02-23T00:56:35;6.50;;;1.20;;
23578;SDS011;11967;50.852;4.400;2024-02-23T00:59:01;4.40;;;1.30;;
23578;SDS011;11967;50.852;4.400;2024-02-23T01:01:27;6.93;;;1.33;;
23578;SDS011;11967;50.852;4.400;2024-02-23T01:03:53;6.07;;;1.40;;
23578;SDS011;11967;50.852;4.400;2024-02-23T01:06:19;7.18;;;1.15;;
23578;SDS011;11967;50.852;4.400;2024-02-23T01:08:45;6.35;;;1.10;;
23578;SDS011;11967;50.852;4.400;2024-02-23T01:11:11;4.22;;;0.90;;
23578;SDS011;11967;50.852;4.400;2024-02-23T01:13:36;5.38;;;1.48;;
23578;SDS011;11967;50.852;4.400;2024-02-23T01:16:02;6.22;;;1.50;;
23578;SDS011;11967;50.852;4.400;2024-02-23T01:18:28;3.60;;;0.98;;
23578;SDS011;11967;50.852;4.400;2024-02-23T01:20:53;3.40;;;0.80;;
23578;SDS011;11967;50.852;4.400;2024-02-23T01:23:21;5.15;;;1.20;;
23578;SDS011;11967;50.852;4.400;2024-02-23T01:25:46;6.82;;;1.25;;
23578;SDS011;11967;50.852;4.400;2024-02-23T01:28:12;6.90;;;1.20;;
23578;SDS011;11967;50.852;4.400;2024-02-23T01:30:37;4.50;;;1.10;;
23578;SDS011;11967;50.852;4.400;2024-02-23T01:33:03;4.32;;;1.20;;
23578;SDS011;11967;50.852;4.400;2024-02-23T01:35:29;4.40;;;1.10;;
23578;SDS011;11967;50.852;4.400;2024-02-23T01:37:55;6.38;;;1.25;;
23578;SDS011;11967;50.852;4.400;2024-02-23T01:40:20;7.43;;;1.40;;
23578;SDS011;11967;50.852;4.400;2024-02-23T01:42:46;7.00;;;1.48;;
23578;SDS011;11967;50.852;4.400;2024-02-23T01:45:12;5.90;;;1.30;;
23578;SDS011;11967;50.852;4.400;2024-02-23T01:47:37;4.90;;;1.15;;
23578;SDS011;11967;50.852;4.400;2024-02-23T01:50:04;5.40;;;1.15;;
23578;SDS011;11967;50.852;4.400;2024-02-23T01:52:32;11.32;;;1.63;;
23578;SDS011;11967;50.852;4.400;2024-02-23T01:54:58;7.55;;;1.65;;
23578;SDS011;11967;50.852;4.400;2024-02-23T01:57:25;7.90;;;1.33;;
23578;SDS011;11967;50.852;4.400;2024-02-23T01:59:52;9.77;;;1.40;;
23578;SDS011;11967;50.852;4.400;2024-02-23T02:02:18;5.88;;;1.58;;
23578;SDS011;11967;50.852;4.400;2024-02-23T02:04:44;7.07;;;1.38;;
23578;SDS011;11967;50.852;4.400;2024-02-23T02:07:09;6.95;;;1.52;;
23578;SDS011;11967;50.852;4.400;2024-02-23T02:09:35;8.18;;;1.50;;
23578;SDS011;11967;50.852;4.400;2024-02-23T02:12:01;5.65;;;1.35;;
23578;SDS011;11967;50.852;4.400;2024-02-23T02:14:26;8.20;;;1.58;;
23578;SDS011;11967;50.852;4.400;2024-02-23T02:16:55;9.27;;;1.75;;
23578;SDS011;11967;50.852;4.400;2024-02-23T02:19:20;6.60;;;1.27;;
23578;SDS011;11967;50.852;4.400;2024-02-23T02:21:46;9.93;;;1.65;;
23578;SDS011;11967;50.852;4.400;2024-02-23T02:24:12;8.00;;;2.30;;
23578;SDS011;11967;50.852;4.400;2024-02-23T02:26:38;14.05;;;2.03;;
23578;SDS011;11967;50.852;4.400;2024-02-23T02:29:04;10.05;;;1.60;;
23578;SDS011;11967;50.852;4.400;2024-02-23T02:31:30;10.32;;;2.30;;
23578;SDS011;11967;50.852;4.400;2024-02-23T02:34:01;13.88;;;2.33;;
23578;SDS011;11967;50.852;4.400;2024-02-23T02:36:28;9.32;;;2.25;;
23578;SDS011;11967;50.852;4.400;2024-02-23T02:38:53;15.35;;;2.03;;
23578;SDS011;11967;50.852;4.400;2024-02-23T02:41:19;10.43;;;1.83;;
23578;SDS011;11967;50.852;4.400;2024-02-23T02:43:47;10.43;;;1.80;;
23578;SDS011;11967;50.852;4.400;2024-02-23T02:46:13;12.98;;;2.10;;
23578;SDS011;11967;50.852;4.400;2024-02-23T02:48:38;9.23;;;2.20;;
23578;SDS011;11967;50.852;4.400;2024-02-23T02:51:04;12.02;;;2.97;;
23578;SDS011;11967;50.852;4.400;2024-02-23T02:53:29;8.70;;;2.40;;
23578;SDS011;11967;50.852;4.400;2024-02-23T02:55:55;12.25;;;2.67;;
23578;SDS011;11967;50.852;4.400;2024-02-23T02:58:21;10.30;;;2.58;;
23578;SDS011;11967;50.852;4.400;2024-02-23T03:00:46;17.05;;;2.47;;
23578;SDS011;11967;50.852;4.400;2024-02-23T03:03:12;14.02;;;2.78;;
23578;SDS011;11967;50.852;4.400;2024-02-23T03:05:38;13.98;;;3.05;;
23578;SDS011;11967;50.852;4.400;2024-02-23T03:08:03;13.98;;;2.60;;
23578;SDS011;11967;50.852;4.400;2024-02-23T03:10:29;14.55;;;2.70;;
23578;SDS011;11967;50.852;4.400;2024-02-23T03:12:55;13.98;;;2.67;;
23578;SDS011;11967;50.852;4.400;2024-02-23T03:15:21;13.15;;;3.53;;
23578;SDS011;11967;50.852;4.400;2024-02-23T03:17:47;12.48;;;2.83;;
23578;SDS011;11967;50.852;4.400;2024-02-23T03:20:13;7.50;;;2.30;;
23578;SDS011;11967;50.852;4.400;2024-02-23T03:22:41;12.95;;;3.10;;
23578;SDS011;11967;50.852;4.400;2024-02-23T03:25:06;12.75;;;2.65;;
23578;SDS011;11967;50.852;4.400;2024-02-23T03:27:36;10.00;;;3.13;;
23578;SDS011;11967;50.852;4.400;2024-02-23T03:30:02;8.90;;;2.55;;
23578;SDS011;11967;50.852;4.400;2024-02-23T03:32:33;7.65;;;2.35;;
23578;SDS011;11967;50.852;4.400;2024-02-23T03:35:05;8.13;;;2.50;;
23578;SDS011;11967;50.852;4.400;2024-02-23T03:37:33;13.15;;;2.90;;
23578;SDS011;11967;50.852;4.400;2024-02-23T03:39:58;12.70;;;2.90;;
23578;SDS011;11967;50.852;4.400;2024-02-23T03:42:27;12.23;;;2.92;;
23578;SDS011;11967;50.852;4.400;2024-02-23T03:44:53;9.98;;;2.75;;
23578;SDS011;11967;50.852;4.400;2024-02-23T03:47:18;11.38;;;2.53;;
23578;SDS011;11967;50.852;4.400;2024-02-23T03:49:44;9.32;;;2.80;;
23578;SDS011;11967;50.852;4.400;2024-02-23T03:52:09;11.27;;;3.05;;
23578;SDS011;11967;50.852;4.400;2024-02-23T03:54:35;12.55;;;3.10;;
23578;SDS011;11967;50.852;4.400;2024-02-23T03:57:01;9.13;;;2.65;;
23578;SDS011;11967;50.852;4.400;2024-02-23T03:59:27;12.13;;;2.88;;
23578;SDS011;11967;50.852;4.400;2024-02-23T04:01:53;12.32;;;2.83;;
23578;SDS011;11967;50.852;4.400;2024-02-23T04:04:19;17.55;;;3.42;;
23578;SDS011;11967;50.852;4.400;2024-02-23T04:06:44;13.20;;;3.53;;
23578;SDS011;11967;50.852;4.400;2024-02-23T04:09:11;9.40;;;2.65;;
23578;SDS011;11967;50.852;4.400;2024-02-23T04:11:37;10.02;;;2.50;;
23578;SDS011;11967;50.852;4.400;2024-02-23T04:14:02;16.75;;;3.03;;
23578;SDS011;11967;50.852;4.400;2024-02-23T04:16:30;13.93;;;3.47;;
23578;SDS011;11967;50.852;4.400;2024-02-23T04:18:56;13.20;;;3.63;;
23578;SDS011;11967;50.852;4.400;2024-02-23T04:21:22;12.50;;;2.42;;
23578;SDS011;11967;50.852;4.400;2024-02-23T04:23:47;14.65;;;2.90;;
23578;SDS011;11967;50.852;4.400;2024-02-23T04:26:14;12.18;;;2.88;;
23578;SDS011;11967;50.852;4.400;2024-02-23T04:28:40;11.00;;;3.00;;
23578;SDS011;11967;50.852;4.400;2024-02-23T04:31:09;15.20;;;3.00;;
23578;SDS011;11967;50.852;4.400;2024-02-23T04:33:35;11.23;;;2.58;;
23578;SDS011;11967;50.852;4.400;2024-02-23T04:36:02;12.38;;;2.38;;
23578;SDS011;11967;50.852;4.400;2024-02-23T04:38:28;12.32;;;2.50;;
23578;SDS011;11967;50.852;4.400;2024-02-23T04:40:55;15.20;;;2.65;;
23578;SDS011;11967;50.852;4.400;2024-02-23T04:43:22;10.68;;;2.97;;
23578;SDS011;11967;50.852;4.400;2024-02-23T04:45:48;12.40;;;2.85;;
23578;SDS011;11967;50.852;4.400;2024-02-23T04:48:14;10.70;;;2.80;;
23578;SDS011;11967;50.852;4.400;2024-02-23T04:50:39;16.70;;;3.40;;
23578;SDS011;11967;50.852;4.400;2024-02-23T04:53:05;11.35;;;3.17;;
23578;SDS011;11967;50.852;4.400;2024-02-23T04:55:31;13.50;;;3.38;;
23578;SDS011;11967;50.852;4.400;2024-02-23T04:57:56;13.30;;;2.80;;
23578;SDS011;11967;50.852;4.400;2024-02-23T05:00:22;11.77;;;3.35;;
23578;SDS011;11967;50.852;4.400;2024-02-23T05:02:48;15.20;;;2.70;;
23578;SDS011;11967;50.852;4.400;2024-02-23T05:05:14;11.82;;;2.53;;
23578;SDS011;11967;50.852;4.400;2024-02-23T05:07:40;12.63;;;2.42;;
23578;SDS011;11967;50.852;4.400;2024-02-23T05:10:06;11.23;;;2.50;;
23578;SDS011;11967;50.852;4.400;2024-02-23T05:12:32;9.57;;;2.17;;
23578;SDS011;11967;50.852;4.400;2024-02-23T05:14:57;8.75;;;2.20;;
23578;SDS011;11967;50.852;4.400;2024-02-23T05:17:23;8.73;;;1.92;;
23578;SDS011;11967;50.852;4.400;2024-02-23T05:19:49;8.90;;;1.83;;
23578;SDS011;11967;50.852;4.400;2024-02-23T05:22:15;9.50;;;1.95;;
23578;SDS011;11967;50.852;4.400;2024-02-23T05:24:41;13.02;;;2.67;;
23578;SDS011;11967;50.852;4.400;2024-02-23T05:27:07;11.65;;;2.67;;
23578;SDS011;11967;50.852;4.400;2024-02-23T05:29:32;11.80;;;2.20;;
23578;SDS011;11967;50.852;4.400;2024-02-23T05:31:58;10.20;;;2.00;;
23578;SDS011;11967;50.852;4.400;2024-02-23T05:34:24;9.98;;;1.98;;
23578;SDS011;11967;50.852;4.400;2024-02-23T05:36:50;11.48;;;2.40;;
23578;SDS011;11967;50.852;4.400;2024-02-23T05:39:16;11.02;;;1.60;;
23578;SDS011;11967;50.852;4.400;2024-02-23T05:41:42;10.38;;;2.15;;
23578;SDS011;11967;50.852;4.400;2024-02-23T05:44:08;7.90;;;2.13;;
23578;SDS011;11967;50.852;4.400;2024-02-23T05:46:34;11.93;;;2.47;;
23578;SDS011;11967;50.852;4.400;2024-02-23T05:49:00;14.15;;;2.28;;
23578;SDS011;11967;50.852;4.400;2024-02-23T05:51:30;14.60;;;2.08;;
23578;SDS011;11967;50.852;4.400;2024-02-23T05:53:56;12.40;;;2.22;;
23578;SDS011;11967;50.852;4.400;2024-02-23T05:56:22;13.63;;;2.67;;
23578;SDS011;11967;50.852;4.400;2024-02-23T05:58:50;13.13;;;2.45;;
23578;SDS011;11967;50.852;4.400;2024-02-23T06:01:17;11.35;;;2.53;;
23578;SDS011;11967;50.852;4.400;2024-02-23T06:03:43;15.93;;;1.98;;
23578;SDS011;11967;50.852;4.400;2024-02-23T06:06:09;9.90;;;2.45;;
23578;SDS011;11967;50.852;4.400;2024-02-23T06:08:35;10.90;;;2.40;;
23578;SDS011;11967;50.852;4.400;2024-02-23T06:11:01;13.88;;;2.35;;
23578;SDS011;11967;50.852;4.400;2024-02-23T06:13:29;10.45;;;2.13;;
23578;SDS011;11967;50.852;4.400;2024-02-23T06:15:55;13.02;;;2.08;;
23578;SDS011;11967;50.852;4.400;2024-02-23T06:18:20;11.20;;;2.00;;
23578;SDS011;11967;50.852;4.400;2024-02-23T06:20:46;12.05;;;1.98;;
23578;SDS011;11967;50.852;4.400;2024-02-23T06:23:11;13.63;;;2.50;;
23578;SDS011;11967;50.852;4.400;2024-02-23T06:25:38;11.63;;;2.53;;
23578;SDS011;11967;50.852;4.400;2024-02-23T06:28:04;9.52;;;2.13;;
23578;SDS011;11967;50.852;4.400;2024-02-23T06:30:31;9.93;;;1.75;;
23578;SDS011;11967;50.852;4.400;2024-02-23T06:32:57;17.42;;;2.72;;
23578;SDS011;11967;50.852;4.400;2024-02-23T06:35:22;10.98;;;2.17;;
23578;SDS011;11967;50.852;4.400;2024-02-23T06:37:48;12.77;;;2.25;;
23578;SDS011;11967;50.852;4.400;2024-02-23T06:40:15;10.15;;;2.17;;
23578;SDS011;11967;50.852;4.400;2024-02-23T06:42:40;12.40;;;2.10;;
23578;SDS011;11967;50.852;4.400;2024-02-23T06:45:06;10.82;;;2.20;;
23578;SDS011;11967;50.852;4.400;2024-02-23T06:47:32;10.68;;;2.22;;
23578;SDS011;11967;50.852;4.400;2024-02-23T06:49:59;13.43;;;2.42;;
23578;SDS011;11967;50.852;4.400;2024-02-23T06:52:26;12.48;;;2.10;;
23578;SDS011;11967;50.852;4.400;2024-02-23T06:54:52;12.43;;;2.65;;
23578;SDS011;11967;50.852;4.400;2024-02-23T06:57:23;12.73;;;2.25;;
23578;SDS011;11967;50.852;4.400;2024-02-23T06:59:51;15.93;;;2.15;;
23578;SDS011;11967;50.852;4.400;2024-02-23T07:02:17;12.70;;;1.90;;
23578;SDS011;11967;50.852;4.400;2024-02-23T07:04:43;11.05;;;2.05;;
23578;SDS011;11967;50.852;4.400;2024-02-23T07:07:08;13.95;;;2.13;;
23578;SDS011;11967;50.852;4.400;2024-02-23T07:09:34;12.45;;;2.20;;
23578;SDS011;11967;50.852;4.400;2024-02-23T07:12:00;12.30;;;2.58;;
23578;SDS011;11967;50.852;4.400;2024-02-23T07:14:26;14.77;;;3.00;;
23578;SDS011;11967;50.852;4.400;2024-02-23T07:16:51;13.85;;;1.73;;
23578;SDS011;11967;50.852;4.400;2024-02-23T07:19:17;11.65;;;2.00;;
23578;SDS011;11967;50.852;4.400;2024-02-23T07:21:44;15.70;;;2.90;;
23578;SDS011;11967;50.852;4.400;2024-02-23T07:24:10;11.40;;;2.15;;
23578;SDS011;11967;50.852;4.400;2024-02-23T07:26:36;13.52;;;2.17;;
23578;SDS011;11967;50.852;4.400;2024-02-23T07:29:02;12.40;;;2.35;;
23578;SDS011;11967;50.852;4.400;2024-02-23T07:31:27;13.57;;;1.92;;
23578;SDS011;11967;50.852;4.400;2024-02-23T07:33:54;16.88;;;2.47;;
23578;SDS011;11967;50.852;4.400;2024-02-23T07:36:19;13.23;;;2.70;;
23578;SDS011;11967;50.852;4.400;2024-02-23T07:38:47;10.75;;;2.60;;
23578;SDS011;11967;50.852;4.400;2024-02-23T07:41:12;12.70;;;2.72;;
23578;SDS011;11967;50.852;4.400;2024-02-23T07:43:39;11.20;;;2.13;;
23578;SDS011;11967;50.852;4.400;2024-02-23T07:46:08;10.98;;;1.90;;
23578;SDS011;11967;50.852;4.400;2024-02-23T07:48:34;8.73;;;2.28;;
23578;SDS011;11967;50.852;4.400;2024-02-23T07:51:01;18.15;;;2.70;;
23578;SDS011;11967;50.852;4.400;2024-02-23T07:53:27;11.00;;;2.25;;
23578;SDS011;11967;50.852;4.400;2024-02-23T07:55:53;13.57;;;2.17;;
23578;SDS011;11967;50.852;4.400;2024-02-23T07:58:19;14.00;;;2.60;;
23578;SDS011;11967;50.852;4.400;2024-02-23T08:00:44;12.15;;;2.83;;
23578;SDS011;11967;50.852;4.400;2024-02-23T08:03:11;15.75;;;2.25;;
23578;SDS011;11967;50.852;4.400;2024-02-23T08:05:37;11.00;;;2.55;;
23578;SDS011;11967;50.852;4.400;2024-02-23T08:08:03;11.40;;;2.15;;
23578;SDS011;11967;50.852;4.400;2024-02-23T08:10:29;8.75;;;2.75;;
23578;SDS011;11967;50.852;4.400;2024-02-23T08:12:55;16.55;;;2.78;;
23578;SDS011;11967;50.852;4.400;2024-02-23T08:15:21;17.48;;;2.85;;
23578;SDS011;11967;50.852;4.400;2024-02-23T08:17:46;12.57;;;2.08;;
23578;SDS011;11967;50.852;4.400;2024-02-23T08:20:12;10.82;;;2.53;;
23578;SDS011;11967;50.852;4.400;2024-02-23T08:22:37;9.63;;;2.13;;
23578;SDS011;11967;50.852;4.400;2024-02-23T08:25:22;12.40;;;2.55;;
23578;SDS011;11967;50.852;4.400;2024-02-23T08:27:48;9.50;;;2.20;;
23578;SDS011;11967;50.852;4.400;2024-02-23T08:30:14;11.18;;;2.38;;
23578;SDS011;11967;50.852;4.400;2024-02-23T08:32:40;10.13;;;2.08;;
23578;SDS011;11967;50.852;4.400;2024-02-23T08:35:06;10.70;;;2.10;;
23578;SDS011;11967;50.852;4.400;2024-02-23T08:37:32;12.55;;;2.30;;
23578;SDS011;11967;50.852;4.400;2024-02-23T08:39:57;9.38;;;1.95;;
23578;SDS011;11967;50.852;4.400;2024-02-23T08:42:23;11.80;;;2.40;;
23578;SDS011;11967;50.852;4.400;2024-02-23T08:44:49;8.20;;;1.90;;
23578;SDS011;11967;50.852;4.400;2024-02-23T08:47:15;10.85;;;2.22;;
23578;SDS011;11967;50.852;4.400;2024-02-23T08:49:41;12.18;;;2.40;;
23578;SDS011;11967;50.852;4.400;2024-02-23T08:52:06;9.13;;;2.03;;
23578;SDS011;11967;50.852;4.400;2024-02-23T08:54:32;12.38;;;2.13;;
23578;SDS011;11967;50.852;4.400;2024-02-23T08:56:57;10.50;;;2.10;;
23578;SDS011;11967;50.852;4.400;2024-02-23T08:59:23;8.73;;;2.17;;
23578;SDS011;11967;50.852;4.400;2024-02-23T09:01:49;12.40;;;2.10;;
23578;SDS011;11967;50.852;4.400;2024-02-23T09:04:14;11.25;;;2.05;;
23578;SDS011;11967;50.852;4.400;2024-02-23T09:06:40;8.57;;;2.45;;
23578;SDS011;11967;50.852;4.400;2024-02-23T09:09:06;8.10;;;2.10;;
23578;SDS011;11967;50.852;4.400;2024-02-23T09:11:31;7.45;;;2.10;;
23578;SDS011;11967;50.852;4.400;2024-02-23T09:13:58;11.70;;;1.95;;
23578;SDS011;11967;50.852;4.400;2024-02-23T09:16:24;9.27;;;2.08;;
23578;SDS011;11967;50.852;4.400;2024-02-23T09:18:50;14.45;;;2.03;;
23578;SDS011;11967;50.852;4.400;2024-02-23T09:21:16;10.48;;;2.70;;
23578;SDS011;11967;50.852;4.400;2024-02-23T09:23:41;10.18;;;1.90;;
23578;SDS011;11967;50.852;4.400;2024-02-23T09:26:09;10.00;;;2.33;;
23578;SDS011;11967;50.852;4.400;2024-02-23T09:28:38;9.57;;;2.42;;
23578;SDS011;11967;50.852;4.400;2024-02-23T09:31:06;10.27;;;2.35;;
23578;SDS011;11967;50.852;4.400;2024-02-23T09:33:32;10.82;;;2.40;;
23578;SDS011;11967;50.852;4.400;2024-02-23T09:35:57;11.95;;;2.15;;
23578;SDS011;11967;50.852;4.400;2024-02-23T09:38:24;15.57;;;2.67;;
23578;SDS011;11967;50.852;4.400;2024-02-23T09:40:50;9.73;;;2.38;;
23578;SDS011;11967;50.852;4.400;2024-02-23T09:43:16;11.88;;;2.20;;
23578;SDS011;11967;50.852;4.400;2024-02-23T09:45:42;14.02;;;2.47;;
23578;SDS011;11967;50.852;4.400;2024-02-23T09:48:10;11.70;;;2.20;;
23578;SDS011;11967;50.852;4.400;2024-02-23T09:50:36;11.45;;;2.38;;
23578;SDS011;11967;50.852;4.400;2024-02-23T09:53:03;11.30;;;3.05;;
23578;SDS011;11967;50.852;4.400;2024-02-23T09:55:33;15.35;;;3.03;;
23578;SDS011;11967;50.852;4.400;2024-02-23T09:57:59;8.90;;;2.30;;
23578;SDS011;11967;50.852;4.400;2024-02-23T10:00:25;8.85;;;2.70;;
23578;SDS011;11967;50.852;4.400;2024-02-23T10:02:52;11.60;;;2.80;;
23578;SDS011;11967;50.852;4.400;2024-02-23T10:05:20;14.85;;;3.45;;
23578;SDS011;11967;50.852;4.400;2024-02-23T10:07:54;14.35;;;3.17;;
23578;SDS011;11967;50.852;4.400;2024-02-23T10:10:24;12.98;;;2.85;;
23578;SDS011;11967;50.852;4.400;2024-02-23T10:13:01;11.48;;;3.10;;
23578;SDS011;11967;50.852;4.400;2024-02-23T10:15:29;9.25;;;3.38;;
23578;SDS011;11967;50.852;4.400;2024-02-23T10:17:56;10.60;;;2.72;;
23578;SDS011;11967;50.852;4.400;2024-02-23T10:20:21;12.35;;;3.42;;
23578;SDS011;11967;50.852;4.400;2024-02-23T10:22:47;9.55;;;3.00;;
23578;SDS011;11967;50.852;4.400;2024-02-23T10:25:13;12.68;;;2.97;;
23578;SDS011;11967;50.852;4.400;2024-02-23T10:27:40;9.93;;;2.97;;
23578;SDS011;11967;50.852;4.400;2024-02-23T10:30:07;9.43;;;2.85;;
23578;SDS011;11967;50.852;4.400;2024-02-23T10:32:36;9.45;;;2.78;;
23578;SDS011;11967;50.852;4.400;2024-02-23T10:35:05;15.32;;;2.97;;
23578;SDS011;11967;50.852;4.400;2024-02-23T10:37:38;9.15;;;2.38;;
23578;SDS011;11967;50.852;4.400;2024-02-23T10:40:03;9.75;;;2.45;;
23578;SDS011;11967;50.852;4.400;2024-02-23T10:42:34;10.82;;;2.30;;
23578;SDS011;11967;50.852;4.400;2024-02-23T10:45:03;12.65;;;2.25;;
23578;SDS011;11967;50.852;4.400;2024-02-23T10:47:30;11.40;;;2.15;;
23578;SDS011;11967;50.852;4.400;2024-02-23T10:49:58;10.32;;;2.25;;
23578;SDS011;11967;50.852;4.400;2024-02-23T10:52:26;11.60;;;3.05;;
23578;SDS011;11967;50.852;4.400;2024-02-23T10:54:52;9.25;;;2.45;;
23578;SDS011;11967;50.852;4.400;2024-02-23T10:57:19;10.73;;;2.88;;
23578;SDS011;11967;50.852;4.400;2024-02-23T10:59:45;13.85;;;3.20;;
23578;SDS011;11967;50.852;4.400;2024-02-23T11:02:12;10.05;;;2.60;;
23578;SDS011;11967;50.852;4.400;2024-02-23T11:04:48;10.15;;;2.50;;
23578;SDS011;11967;50.852;4.400;2024-02-23T11:07:15;10.68;;;2.75;;
23578;SDS011;11967;50.852;4.400;2024-02-23T11:09:48;10.55;;;2.70;;
23578;SDS011;11967;50.852;4.400;2024-02-23T11:12:22;9.38;;;2.28;;
23578;SDS011;11967;50.852;4.400;2024-02-23T11:14:49;10.15;;;2.75;;
23578;SDS011;11967;50.852;4.400;2024-02-23T11:17:18;12.20;;;2.55;;
23578;SDS011;11967;50.852;4.400;2024-02-23T11:19:46;14.18;;;2.90;;
23578;SDS011;11967;50.852;4.400;2024-02-23T11:22:14;10.85;;;2.63;;
23578;SDS011;11967;50.852;4.400;2024-02-23T11:24:43;11.65;;;2.47;;
23578;SDS011;11967;50.852;4.400;2024-02-23T11:27:13;12.93;;;2.90;;
23578;SDS011;11967;50.852;4.400;2024-02-23T11:29:42;11.75;;;2.72;;
23578;SDS011;11967;50.852;4.400;2024-02-23T11:32:17;14.27;;;2.47;;
23578;SDS011;11967;50.852;4.400;2024-02-23T11:34:56;10.45;;;3.00;;
23578;SDS011;11967;50.852;4.400;2024-02-23T11:37:22;9.68;;;2.75;;
23578;SDS011;11967;50.852;4.400;2024-02-23T11:39:48;8.38;;;2.60;;
23578;SDS011;11967;50.852;4.400;2024-02-23T11:42:14;7.80;;;2.78;;
23578;SDS011;11967;50.852;4.400;2024-02-23T11:44:40;11.77;;;2.42;;
23578;SDS011;11967;50.852;4.400;2024-02-23T11:47:07;8.10;;;2.95;;
23578;SDS011;11967;50.852;4.400;2024-02-23T11:49:32;11.70;;;2.80;;
23578;SDS011;11967;50.852;4.400;2024-02-23T11:51:58;9.18;;;2.60;;
23578;SDS011;11967;50.852;4.400;2024-02-23T11:54:24;11.45;;;3.28;;
23578;SDS011;11967;50.852;4.400;2024-02-23T11:56:50;7.15;;;2.30;;
23578;SDS011;11967;50.852;4.400;2024-02-23T11:59:19;8.45;;;2.38;;
23578;SDS011;11967;50.852;4.400;2024-02-23T12:01:46;9.38;;;2.88;;
23578;SDS011;11967;50.852;4.400;2024-02-23T12:04:14;8.60;;;2.90;;
23578;SDS011;11967;50.852;4.400;2024-02-23T12:06:42;8.68;;;2.95;;
23578;SDS011;11967;50.852;4.400;2024-02-23T12:09:08;9.35;;;2.70;;
23578;SDS011;11967;50.852;4.400;2024-02-23T12:11:34;7.38;;;2.70;;
23578;SDS011;11967;50.852;4.400;2024-02-23T12:14:06;7.68;;;2.90;;
23578;SDS011;11967;50.852;4.400;2024-02-23T12:16:35;7.30;;;2.60;;
23578;SDS011;11967;50.852;4.400;2024-02-23T12:19:07;7.20;;;2.65;;
23578;SDS011;11967;50.852;4.400;2024-02-23T12:21:34;15.13;;;3.25;;
23578;SDS011;11967;50.852;4.400;2024-02-23T12:24:05;7.03;;;2.65;;
23578;SDS011;11967;50.852;4.400;2024-02-23T12:26:32;10.27;;;3.05;;
23578;SDS011;11967;50.852;4.400;2024-02-23T12:29:02;8.73;;;2.90;;
23578;SDS011;11967;50.852;4.400;2024-02-23T12:31:28;12.68;;;3.60;;
23578;SDS011;11967;50.852;4.400;2024-02-23T12:33:57;11.43;;;3.15;;
23578;SDS011;11967;50.852;4.400;2024-02-23T12:36:23;10.38;;;3.50;;
23578;SDS011;11967;50.852;4.400;2024-02-23T12:38:49;11.60;;;3.13;;
23578;SDS011;11967;50.852;4.400;2024-02-23T12:41:14;15.73;;;3.50;;
23578;SDS011;11967;50.852;4.400;2024-02-23T12:43:40;9.07;;;3.17;;
23578;SDS011;11967;50.852;4.400;2024-02-23T12:46:06;10.70;;;2.80;;
23578;SDS011;11967;50.852;4.400;2024-02-23T12:48:34;11.68;;;2.67;;
23578;SDS011;11967;50.852;4.400;2024-02-23T12:51:00;9.13;;;2.38;;
23578;SDS011;11967;50.852;4.400;2024-02-23T12:53:38;10.27;;;3.08;;
23578;SDS011;11967;50.852;4.400;2024-02-23T12:56:06;9.15;;;2.83;;
23578;SDS011;11967;50.852;4.400;2024-02-23T12:58:33;8.18;;;2.58;;
23578;SDS011;11967;50.852;4.400;2024-02-23T13:01:00;6.43;;;2.20;;
23578;SDS011;11967;50.852;4.400;2024-02-23T13:03:26;9.27;;;2.45;;
23578;SDS011;11967;50.852;4.400;2024-02-23T13:05:52;7.90;;;1.98;;
23578;SDS011;11967;50.852;4.400;2024-02-23T13:08:18;7.85;;;2.10;;
23578;SDS011;11967;50.852;4.400;2024-02-23T13:10:44;10.43;;;2.63;;
23578;SDS011;11967;50.852;4.400;2024-02-23T13:13:11;9.73;;;2.50;;
23578;SDS011;11967;50.852;4.400;2024-02-23T13:15:39;9.70;;;2.20;;
23578;SDS011;11967;50.852;4.400;2024-02-23T13:18:06;6.55;;;1.98;;
23578;SDS011;11967;50.852;4.400;2024-02-23T13:20:32;9.77;;;2.15;;
23578;SDS011;11967;50.852;4.400;2024-02-23T13:22:57;10.30;;;2.30;;
23578;SDS011;11967;50.852;4.400;2024-02-23T13:25:23;10.90;;;2.30;;
23578;SDS011;11967;50.852;4.400;2024-02-23T13:27:49;6.80;;;1.90;;
23578;SDS011;11967;50.852;4.400;2024-02-23T13:30:15;7.13;;;1.98;;
23578;SDS011;11967;50.852;4.400;2024-02-23T13:32:40;8.52;;;2.50;;
23578;SDS011;11967;50.852;4.400;2024-02-23T13:35:06;5.70;;;1.85;;
23578;SDS011;11967;50.852;4.400;2024-02-23T13:37:33;8.00;;;1.98;;
23578;SDS011;11967;50.852;4.400;2024-02-23T13:39:59;13.77;;;2.35;;
23578;SDS011;11967;50.852;4.400;2024-02-23T13:42:25;10.05;;;1.98;;
23578;SDS011;11967;50.852;4.400;2024-02-23T13:44:51;6.25;;;1.70;;
23578;SDS011;11967;50.852;4.400;2024-02-23T13:47:17;8.38;;;2.30;;
23578;SDS011;11967;50.852;4.400;2024-02-23T13:49:43;8.23;;;1.67;;
23578;SDS011;11967;50.852;4.400;2024-02-23T13:52:09;8.38;;;2.15;;
23578;SDS011;11967;50.852;4.400;2024-02-23T13:54:35;6.63;;;2.08;;
23578;SDS011;11967;50.852;4.400;2024-02-23T13:57:01;9.35;;;2.15;;
23578;SDS011;11967;50.852;4.400;2024-02-23T13:59:27;8.10;;;2.30;;
23578;SDS011;11967;50.852;4.400;2024-02-23T14:01:52;7.47;;;1.58;;
23578;SDS011;11967;50.852;4.400;2024-02-23T14:04:18;9.13;;;2.22;;
23578;SDS011;11967;50.852;4.400;2024-02-23T14:06:44;7.03;;;1.92;;
23578;SDS011;11967;50.852;4.400;2024-02-23T14:09:12;7.13;;;1.70;;
23578;SDS011;11967;50.852;4.400;2024-02-23T14:11:42;6.40;;;2.00;;
23578;SDS011;11967;50.852;4.400;2024-02-23T14:14:09;12.32;;;2.15;;
23578;SDS011;11967;50.852;4.400;2024-02-23T14:16:37;8.27;;;1.88;;
23578;SDS011;11967;50.852;4.400;2024-02-23T14:19:04;9.80;;;1.67;;
23578;SDS011;11967;50.852;4.400;2024-02-23T14:21:35;5.60;;;1.60;;
23578;SDS011;11967;50.852;4.400;2024-02-23T14:24:02;7.05;;;1.70;;
23578;SDS011;11967;50.852;4.400;2024-02-23T14:26:29;7.20;;;1.80;;
23578;SDS011;11967;50.852;4.400;2024-02-23T14:28:55;6.65;;;1.83;;
23578;SDS011;11967;50.852;4.400;2024-02-23T14:31:21;7.38;;;1.75;;
23578;SDS011;11967;50.852;4.400;2024-02-23T14:33:46;7.72;;;1.73;;
23578;SDS011;11967;50.852;4.400;2024-02-23T14:36:16;7.18;;;1.60;;